Time;durP1;ratioP1;P1;durP2;ratioP2;P2;SDS_P1;SDS_P2;PMS_P1;PMS_P2;Temp;Humidity;BMP_temperature;BMP_pressure;BME280_temperature;BME280_humidity;BME280_pressure;Samples;Min_cycle;Max_cycle;Signal;HPM_P1;HPM_P2
2021/10/17 00:01:03;;;;;;;7.32;1.80;;;;;;;9.85;68.94;100097.03;5107479;28;20027;-68
2021/10/17 00:03:28;;;;;;;4.55;1.15;;;;;;;9.89;68.66;100095.22;5107359;28;20076;-68
2021/10/17 00:05:53;;;;;;;5.43;1.70;;;;;;;9.87;68.81;100094.41;5107191;28;20023;-69
2021/10/17 00:08:20;;;;;;;12.98;1.50;;;;;;;9.86;68.86;100101.31;5107211;28;20016;-68
2021/10/17 00:10:45;;;;;;;7.90;1.50;;;;;;;9.87;69.14;100089.22;5107119;28;20023;-68
2021/10/17 00:13:11;;;;;;;4.18;1.02;;;;;;;9.95;68.70;100091.72;5105613;28;20028;-69
2021/10/17 00:15:38;;;;;;;7.18;1.40;;;;;;;9.84;68.92;100079.72;5107082;28;20035;-68
2021/10/17 00:18:06;;;;;;;9.45;1.55;;;;;;;9.85;68.75;100088.38;5106389;28;20042;-68
2021/10/17 00:20:33;;;;;;;9.35;1.42;;;;;;;9.78;68.66;100087.56;5107020;28;20145;-68
2021/10/17 00:22:58;;;;;;;7.18;1.30;;;;;;;9.78;68.42;100082.38;5106753;28;20103;-68
2021/10/17 00:25:24;;;;;;;5.97;1.08;;;;;;;9.77;68.18;100085.88;5106473;28;20075;-68
2021/10/17 00:27:50;;;;;;;3.70;1.17;;;;;;;9.72;68.06;100087.63;5107124;28;20520;-68
2021/10/17 00:30:16;;;;;;;1.98;0.90;;;;;;;9.64;68.07;100083.41;5106676;28;20068;-68
2021/10/17 00:32:42;;;;;;;8.48;2.35;;;;;;;9.64;68.00;100092.91;5106367;28;20028;-68
2021/10/17 00:35:08;;;;;;;3.35;0.70;;;;;;;9.54;68.11;100097.31;5106824;28;20443;-68
2021/10/17 00:37:34;;;;;;;6.50;1.77;;;;;;;9.54;67.95;100099.91;5106800;28;20020;-68
2021/10/17 00:40:07;;;;;;;5.57;1.35;;;;;;;9.53;68.08;100103.38;5106359;28;20484;-68
2021/10/17 00:42:33;;;;;;;5.38;1.48;;;;;;;9.53;67.94;100087.81;5106609;28;20016;-68
2021/10/17 00:45:02;;;;;;;7.88;1.10;;;;;;;9.52;68.28;100096.47;5106634;28;20020;-68
2021/10/17 00:47:28;;;;;;;12.88;1.40;;;;;;;9.51;68.42;100099.94;5106301;28;20024;-69
2021/10/17 00:49:53;;;;;;;5.18;0.95;;;;;;;9.55;68.20;100099.03;5106457;28;20016;-68
2021/10/17 00:52:19;;;;;;;7.13;1.23;;;;;;;9.49;68.35;100091.31;5106436;28;20024;-68
2021/10/17 00:54:45;;;;;;;7.18;1.25;;;;;;;9.48;68.43;100094.78;5106125;28;20051;-68
2021/10/17 00:57:12;;;;;;;11.57;1.30;;;;;;;9.49;68.47;100099.09;5106303;28;20039;-68
2021/10/17 00:59:37;;;;;;;8.45;2.35;;;;;;;9.48;68.58;100100.81;5106253;28;20080;-68
2021/10/17 01:02:03;;;;;;;8.75;1.25;;;;;;;9.51;68.62;100099.94;5106131;28;20024;-68
2021/10/17 01:04:28;;;;;;;6.85;1.27;;;;;;;9.52;68.52;100102.50;5105940;28;20311;-68
2021/10/17 01:06:54;;;;;;;4.22;1.13;;;;;;;9.46;68.98;100102.56;5105159;28;20026;-68
2021/10/17 01:09:19;;;;;;;5.38;1.27;;;;;;;9.49;68.66;100099.94;5106150;28;20106;-68
2021/10/17 01:11:47;;;;;;;8.30;1.27;;;;;;;9.46;69.09;100092.19;5105839;28;20090;-68
2021/10/17 01:14:16;;;;;;;6.93;1.75;;;;;;;9.44;69.34;100090.50;5106226;28;20485;-68
2021/10/17 01:16:42;;;;;;;11.02;1.75;;;;;;;9.44;69.50;100088.75;5105995;28;20020;-68
2021/10/17 01:19:07;;;;;;;6.63;1.30;;;;;;;9.40;69.81;100097.44;5087890;28;20538;-67
2021/10/17 01:21:35;;;;;;;3.72;1.23;;;;;;;9.46;69.59;100092.19;5106009;28;20091;-68
2021/10/17 01:24:00;;;;;;;4.43;1.10;;;;;;;9.41;69.53;100099.13;5105840;28;20048;-68
2021/10/17 01:26:25;;;;;;;10.38;1.75;;;;;;;9.45;69.61;100102.56;5105664;28;20031;-68
2021/10/17 01:28:51;;;;;;;5.32;1.45;;;;;;;9.41;69.65;100093.97;5105854;28;20024;-68
2021/10/17 01:31:16;;;;;;;7.68;0.90;;;;;;;9.44;69.58;100101.69;5105876;28;20028;-68
2021/10/17 01:33:41;;;;;;;4.93;1.10;;;;;;;9.39;69.70;100100.91;5105495;28;20428;-69
2021/10/17 01:36:07;;;;;;;10.32;1.35;;;;;;;9.41;69.46;100100.00;5105511;28;20028;-68
2021/10/17 01:38:32;;;;;;;6.75;1.30;;;;;;;9.38;69.64;100100.03;5105761;28;20032;-68
2021/10/17 01:40:57;;;;;;;4.75;0.90;;;;;;;9.38;69.54;100100.03;5105280;28;20016;-68
2021/10/17 01:43:26;;;;;;;4.18;1.08;;;;;;;9.40;69.63;100103.47;5105504;28;20440;-68
2021/10/17 01:45:52;;;;;;;6.40;1.55;;;;;;;9.38;69.45;100096.56;5105538;28;20016;-68
2021/10/17 01:48:17;;;;;;;5.75;1.15;;;;;;;9.41;69.59;100104.31;5105354;28;20024;-67
2021/10/17 01:50:43;;;;;;;4.95;1.15;;;;;;;9.42;69.37;100096.53;5105679;28;20039;-67
2021/10/17 01:53:09;;;;;;;3.70;1.25;;;;;;;9.44;69.49;100098.28;5105245;28;20237;-67
2021/10/17 01:55:34;;;;;;;7.22;1.55;;;;;;;9.48;69.51;100103.41;5104926;28;20085;-68
2021/10/17 01:57:59;;;;;;;7.32;1.75;;;;;;;9.52;69.25;100101.66;5105474;28;20081;-68
2021/10/17 02:00:24;;;;;;;6.85;1.42;;;;;;;9.55;69.12;100102.47;5105386;28;20032;-68
2021/10/17 02:02:50;;;;;;;4.43;1.10;;;;;;;9.53;69.24;100103.38;5105216;28;20028;-68
2021/10/17 02:05:15;;;;;;;5.72;0.98;;;;;;;9.51;69.04;100099.94;5105273;28;20012;-68
2021/10/17 02:07:41;;;;;;;6.47;1.27;;;;;;;9.51;68.79;100097.34;5105000;28;20089;-68
2021/10/17 02:10:06;;;;;;;7.03;1.45;;;;;;;9.53;68.50;100087.81;5104795;28;20028;-68
2021/10/17 02:12:33;;;;;;;11.18;2.05;;;;;;;9.58;68.49;100093.81;5086719;28;20023;-68
2021/10/17 02:14:59;;;;;;;7.60;1.50;;;;;;;9.55;68.30;100092.09;5104845;28;20038;-67
2021/10/17 02:17:25;;;;;;;3.33;1.23;;;;;;;9.55;68.52;100091.28;5104607;28;20016;-67
2021/10/17 02:19:50;;;;;;;9.38;1.20;;;;;;;9.51;68.47;100086.97;5120446;28;20051;-67
2021/10/17 02:22:16;;;;;;;2.58;0.90;;;;;;;9.44;68.41;100087.91;5104588;28;20055;-67
2021/10/17 02:24:41;;;;;;;7.32;1.08;;;;;;;9.50;68.19;100082.66;5104480;28;20119;-67
2021/10/17 02:27:07;;;;;;;5.57;1.00;;;;;;;9.56;68.03;100087.78;5104558;28;20267;-68
2021/10/17 02:29:34;;;;;;;6.22;1.20;;;;;;;9.54;67.83;100085.22;5104546;28;20027;-67
2021/10/17 02:31:59;;;;;;;4.68;1.00;;;;;;;9.55;67.88;100081.75;5104449;28;20012;-68
2021/10/17 02:34:26;;;;;;;5.97;1.08;;;;;;;9.53;67.98;100083.50;5104625;28;20072;-68
2021/10/17 02:36:52;;;;;;;20.75;1.80;;;;;;;9.51;67.82;100081.78;5104414;28;20027;-68
2021/10/17 02:39:17;;;;;;;5.88;0.93;;;;;;;9.48;68.06;100081.81;5104556;28;20032;-68
2021/10/17 02:41:42;;;;;;;6.75;1.08;;;;;;;9.45;67.90;100084.44;5104183;28;20016;-67
2021/10/17 02:44:08;;;;;;;8.32;1.00;;;;;;;9.46;67.63;100081.81;5086046;28;20044;-67
2021/10/17 02:46:33;;;;;;;3.60;1.00;;;;;;;9.49;67.59;100081.81;5104169;28;20016;-67
2021/10/17 02:48:59;;;;;;;3.45;0.90;;;;;;;9.45;67.55;100079.25;5104262;28;20020;-67
2021/10/17 02:51:24;;;;;;;6.03;1.10;;;;;;;9.46;67.50;100080.97;5103776;28;20608;-68
2021/10/17 02:53:49;;;;;;;6.80;1.23;;;;;;;9.49;67.62;100076.63;5104332;28;20028;-68
2021/10/17 02:56:15;;;;;;;6.65;1.20;;;;;;;9.48;67.68;100084.41;5103773;28;20051;-67
2021/10/17 02:58:40;;;;;;;6.60;1.42;;;;;;;9.52;67.59;100086.94;5104284;28;20065;-68
2021/10/17 03:01:05;;;;;;;12.73;1.60;;;;;;;9.47;67.50;100082.69;5104147;28;20084;-68
2021/10/17 03:03:31;;;;;;;9.32;1.30;;;;;;;9.44;67.57;100077.53;5103917;28;20043;-68
2021/10/17 03:05:56;;;;;;;9.45;1.10;;;;;;;9.45;67.40;100080.13;5103767;28;20400;-67
2021/10/17 03:08:22;;;;;;;5.78;1.20;;;;;;;9.40;67.47;100079.28;5104026;28;20020;-67
2021/10/17 03:10:47;;;;;;;9.60;1.08;;;;;;;9.32;67.43;100078.50;5103662;28;20391;-67
2021/10/17 03:13:12;;;;;;;3.90;1.17;;;;;;;9.23;67.88;100084.63;5085583;28;20028;-67
2021/10/17 03:15:38;;;;;;;5.88;1.15;;;;;;;9.16;67.63;100074.31;5103376;28;20023;-68
2021/10/17 03:18:03;;;;;;;4.18;1.30;;;;;;;9.16;67.91;100084.69;5103936;28;20055;-68
2021/10/17 03:20:28;;;;;;;8.07;2.17;;;;;;;9.12;67.91;100087.31;5103661;28;20028;-67
2021/10/17 03:22:54;;;;;;;5.32;0.93;;;;;;;9.11;67.81;100094.19;5103687;28;20493;-68
2021/10/17 03:25:19;;;;;;;4.50;1.30;;;;;;;9.03;67.85;100086.50;5103752;28;20454;-68
2021/10/17 03:27:45;;;;;;;9.18;1.30;;;;;;;9.00;68.24;100096.00;5103152;28;20536;-68
2021/10/17 03:30:10;;;;;;;8.32;1.30;;;;;;;9.03;68.07;100094.25;5103368;28;20028;-68
2021/10/17 03:32:35;;;;;;;7.43;1.85;;;;;;;9.04;68.20;100080.44;5103447;28;20052;-68
2021/10/17 03:35:03;;;;;;;5.40;1.48;;;;;;;9.10;68.42;100089.91;5103605;28;20035;-68
2021/10/17 03:37:30;;;;;;;4.88;1.10;;;;;;;9.13;68.33;100095.06;5103427;28;20123;-68
2021/10/17 03:39:56;;;;;;;8.70;1.38;;;;;;;9.16;68.21;100099.34;5085073;28;20028;-69
2021/10/17 03:42:21;;;;;;;6.57;1.10;;;;;;;9.15;68.19;100101.06;5103648;28;20009;-68
2021/10/17 03:44:46;;;;;;;7.40;1.52;;;;;;;9.15;68.23;100103.66;5118811;28;20024;-68
2021/10/17 03:47:12;;;;;;;9.98;1.30;;;;;;;9.09;68.34;100103.72;5103149;28;20024;-68
2021/10/17 03:49:37;;;;;;;4.55;1.00;;;;;;;8.95;68.44;100095.16;5103377;28;20416;-68
2021/10/17 03:52:03;;;;;;;7.30;1.98;;;;;;;8.96;68.52;100104.69;5103130;28;20032;-70
2021/10/17 03:54:28;;;;;;;2.75;1.00;;;;;;;8.92;68.40;100099.53;5103338;28;20035;-69
2021/10/17 03:56:53;;;;;;;4.25;1.02;;;;;;;8.87;68.45;100103.84;5102867;28;20031;-69
2021/10/17 03:59:19;;;;;;;5.82;1.13;;;;;;;8.83;68.32;100091.81;5103288;28;20034;-69
2021/10/17 04:01:44;;;;;;;7.85;1.42;;;;;;;8.78;68.26;100089.25;5103158;28;20016;-69
2021/10/17 04:04:09;;;;;;;8.02;1.25;;;;;;;8.76;68.11;100095.28;5103282;28;20097;-68
2021/10/17 04:06:35;;;;;;;4.88;1.30;;;;;;;8.73;68.21;100084.97;5103062;28;20031;-68
2021/10/17 04:09:01;;;;;;;3.17;1.17;;;;;;;8.64;68.23;100089.31;5103231;28;20027;-68
2021/10/17 04:11:26;;;;;;;3.65;1.20;;;;;;;8.66;68.17;100095.34;5103080;28;20030;-68
2021/10/17 04:13:51;;;;;;;5.93;1.48;;;;;;;8.62;68.17;100093.66;5103391;28;20016;-68
2021/10/17 04:16:17;;;;;;;7.57;1.60;;;;;;;8.65;68.00;100093.66;5103075;28;20026;-68
2021/10/17 04:18:42;;;;;;;3.83;1.10;;;;;;;8.60;68.18;100097.09;5103298;28;20032;-67
2021/10/17 04:21:07;;;;;;;7.10;1.38;;;;;;;8.56;68.17;100101.47;5085108;28;20028;-68
2021/10/17 04:23:33;;;;;;;5.80;1.10;;;;;;;8.51;68.27;100095.41;5103085;28;20043;-68
2021/10/17 04:25:58;;;;;;;5.97;1.35;;;;;;;8.46;68.45;100092.84;5102760;28;20028;-67
2021/10/17 04:28:23;;;;;;;5.07;1.48;;;;;;;8.44;68.45;100102.31;5103385;28;20038;-67
2021/10/17 04:30:49;;;;;;;8.23;1.50;;;;;;;8.35;68.55;100097.19;5102981;28;20028;-67
2021/10/17 04:33:14;;;;;;;7.40;1.33;;;;;;;8.36;68.76;100106.66;5102924;28;20059;-68
2021/10/17 04:35:40;;;;;;;8.02;1.20;;;;;;;8.34;68.55;100098.91;5102880;28;20024;-68
2021/10/17 04:38:06;;;;;;;7.82;2.65;;;;;;;8.28;68.86;100091.19;5103017;28;20036;-68
2021/10/17 04:40:33;;;;;;;9.70;1.30;;;;;;;8.24;69.22;100097.25;5120960;28;20019;-68
2021/10/17 04:43:00;;;;;;;6.07;1.42;;;;;;;8.21;68.95;100089.50;5106612;28;20071;-68
2021/10/17 04:45:26;;;;;;;3.60;1.45;;;;;;;8.16;69.03;100090.34;5106699;28;20051;-68
2021/10/17 04:47:51;;;;;;;4.70;1.00;;;;;;;8.19;68.98;100097.25;5106655;28;20024;-69
2021/10/17 04:50:16;;;;;;;7.47;1.73;;;;;;;8.20;69.05;100101.56;5106502;28;20491;-68
2021/10/17 04:52:42;;;;;;;7.50;1.10;;;;;;;8.13;69.29;100105.88;5106296;28;20035;-68
2021/10/17 04:55:08;;;;;;;6.00;0.90;;;;;;;8.11;69.10;100107.63;5106268;28;20054;-68
2021/10/17 04:57:35;;;;;;;4.47;1.02;;;;;;;8.17;68.98;100111.91;5106742;28;20028;-68
2021/10/17 05:00:01;;;;;;;10.25;1.20;;;;;;;8.16;69.04;100112.78;5106500;28;20054;-68
2021/10/17 05:02:26;;;;;;;6.95;1.65;;;;;;;8.13;68.93;100105.88;5106202;28;20031;-68
2021/10/17 05:04:52;;;;;;;6.13;1.20;;;;;;;8.07;68.85;100105.91;5106395;28;20028;-68
2021/10/17 05:07:17;;;;;;;4.78;0.85;;;;;;;8.06;68.99;100104.19;5106152;28;20028;-68
2021/10/17 05:09:43;;;;;;;6.07;1.10;;;;;;;7.99;69.44;100118.00;5106180;28;20024;-68
2021/10/17 05:12:08;;;;;;;7.93;1.58;;;;;;;8.02;68.99;100120.59;5106116;28;20248;-69
2021/10/17 05:14:33;;;;;;;8.48;1.40;;;;;;;8.00;69.18;100119.72;5106174;28;20020;-68
2021/10/17 05:16:59;;;;;;;8.43;1.45;;;;;;;8.00;69.11;100127.47;5106040;28;20020;-68
2021/10/17 05:19:24;;;;;;;7.03;1.35;;;;;;;7.99;69.06;100124.03;5105951;28;20042;-68
2021/10/17 05:21:49;;;;;;;7.85;1.27;;;;;;;7.99;69.07;100129.19;5105482;28;20020;-68
2021/10/17 05:24:15;;;;;;;3.65;1.10;;;;;;;7.85;69.12;100108.56;5105853;28;20016;-68
2021/10/17 05:26:40;;;;;;;4.38;1.15;;;;;;;7.92;69.10;100133.50;5105534;28;20335;-68
2021/10/17 05:29:05;;;;;;;3.58;0.88;;;;;;;7.86;69.10;100130.09;5105799;28;20020;-68
2021/10/17 05:31:31;;;;;;;3.15;0.90;;;;;;;7.90;68.83;100127.50;5087722;28;20017;-69
2021/10/17 05:33:56;;;;;;;6.13;1.10;;;;;;;7.90;68.82;100134.38;5105679;28;20020;-69
2021/10/17 05:36:21;;;;;;;8.27;1.10;;;;;;;7.92;68.52;100137.84;5105668;28;20080;-68
2021/10/17 05:38:47;;;;;;;6.85;0.93;;;;;;;7.89;68.57;100136.09;5105574;28;20016;-69
2021/10/17 05:41:12;;;;;;;3.42;0.95;;;;;;;7.86;68.51;100136.09;5105392;28;20468;-69
2021/10/17 05:43:37;;;;;;;6.75;1.20;;;;;;;7.84;68.49;100140.44;5105645;28;20025;-68
2021/10/17 05:46:03;;;;;;;6.28;1.58;;;;;;;7.83;68.31;100136.13;5105469;28;20028;-68
2021/10/17 05:48:28;;;;;;;7.50;1.48;;;;;;;7.81;68.21;100127.53;5105556;28;20065;-68
2021/10/17 05:50:54;;;;;;;3.47;0.98;;;;;;;7.84;68.22;100137.00;5105014;28;20430;-69
2021/10/17 05:53:19;;;;;;;2.60;0.98;;;;;;;7.80;68.35;100141.28;5120803;28;20058;-68
2021/10/17 05:55:44;;;;;;;3.50;0.98;;;;;;;7.68;68.35;100129.25;5104991;28;20483;-68
2021/10/17 05:58:10;;;;;;;8.63;1.25;;;;;;;7.80;68.32;100142.16;5105162;28;20031;-68
2021/10/17 06:00:35;;;;;;;6.05;1.25;;;;;;;7.79;68.04;100143.03;5105259;28;20034;-68
2021/10/17 06:03:00;;;;;;;4.68;1.27;;;;;;;7.77;68.30;100142.16;5086926;28;20088;-68
2021/10/17 06:05:26;;;;;;;2.95;0.98;;;;;;;7.80;68.04;100149.03;5104971;28;20092;-69
2021/10/17 06:07:51;;;;;;;6.70;1.10;;;;;;;7.77;68.20;100147.34;5105098;28;20024;-69
2021/10/17 06:10:17;;;;;;;4.38;1.00;;;;;;;7.76;67.90;100147.34;5104646;28;20027;-69
2021/10/17 06:12:43;;;;;;;10.07;1.88;;;;;;;7.74;68.27;100143.88;5105114;28;20032;-67
2021/10/17 06:15:10;;;;;;;3.67;1.13;;;;;;;7.75;68.26;100150.75;5105185;28;20070;-67
2021/10/17 06:17:35;;;;;;;4.10;1.15;;;;;;;7.77;68.24;100149.91;5104837;28;20016;-67
2021/10/17 06:20:01;;;;;;;4.95;0.90;;;;;;;7.78;68.08;100145.63;5104978;28;20099;-68
2021/10/17 06:22:27;;;;;;;2.78;1.00;;;;;;;7.84;67.97;100153.38;5104702;28;20551;-67
2021/10/17 06:24:52;;;;;;;5.53;1.10;;;;;;;7.93;67.92;100155.94;5104731;28;20044;-68
2021/10/17 06:27:17;;;;;;;4.20;1.00;;;;;;;8.02;67.87;100161.97;5104668;28;20088;-67
2021/10/17 06:29:43;;;;;;;3.33;1.45;;;;;;;8.02;67.65;100169.72;5086561;28;20023;-67
2021/10/17 06:32:09;;;;;;;3.33;1.02;;;;;;;8.13;67.62;100175.69;5104824;28;20035;-67
2021/10/17 06:34:34;;;;;;;6.65;1.42;;;;;;;8.19;67.24;100174.84;5104874;28;20016;-68
2021/10/17 06:37:00;;;;;;;3.10;1.17;;;;;;;8.31;67.28;100176.53;5104704;28;20429;-69
2021/10/17 06:39:25;;;;;;;3.83;1.55;;;;;;;8.55;67.10;100180.81;5104551;28;20509;-68
2021/10/17 06:41:51;;;;;;;2.88;1.17;;;;;;;9.12;67.13;100181.38;5104437;28;20016;-66
2021/10/17 06:44:20;;;;;;;5.70;1.00;;;;;;;9.85;66.45;100173.94;5104389;28;20036;-67
2021/10/17 06:46:49;;;;;;;2.58;1.00;;;;;;;10.63;65.18;100173.13;5104484;28;20028;-67
2021/10/17 06:49:16;;;;;;;4.97;0.85;;;;;;;11.39;63.48;100166.00;5104383;28;20034;-67
2021/10/17 06:51:41;;;;;;;2.95;1.00;;;;;;;12.07;62.31;100169.22;5085855;28;20020;-66
2021/10/17 06:54:10;;;;;;;4.60;1.00;;;;;;;12.70;60.57;100170.66;5104167;28;20103;-67
2021/10/17 06:56:35;;;;;;;1.80;0.90;;;;;;;13.27;58.82;100179.78;5103609;28;20165;-68
2021/10/17 06:59:01;;;;;;;4.40;1.42;;;;;;;13.77;58.78;100185.59;5104382;28;20024;-68
2021/10/17 07:01:38;;;;;;;2.25;0.80;;;;;;;14.20;57.19;100178.38;5104191;28;20094;-67
2021/10/17 07:04:03;;;;;;;1.35;0.63;;;;;;;14.53;54.72;100190.56;5085179;28;20032;-68
2021/10/17 07:06:29;;;;;;;2.00;0.70;;;;;;;14.53;53.89;100193.19;5104277;28;20103;-68
2021/10/17 07:08:54;;;;;;;2.22;0.65;;;;;;;14.15;53.23;100188.13;5104246;28;20109;-68
2021/10/17 07:11:19;;;;;;;3.55;0.70;;;;;;;13.61;53.06;100192.97;5103813;28;20032;-68
2021/10/17 07:13:45;;;;;;;4.57;1.20;;;;;;;13.19;53.68;100196.50;5104058;28;20031;-68
2021/10/17 07:16:10;;;;;;;2.33;0.90;;;;;;;12.78;53.99;100202.59;5103850;28;20031;-68
2021/10/17 07:18:36;;;;;;;4.22;1.00;;;;;;;12.57;54.69;100209.09;5103943;28;20099;-68
2021/10/17 07:21:01;;;;;;;4.13;1.10;;;;;;;12.36;54.85;100200.81;5103672;28;20199;-68
2021/10/17 07:23:26;;;;;;;2.42;0.90;;;;;;;12.07;55.49;100203.06;5103473;28;20039;-68
2021/10/17 07:25:52;;;;;;;5.15;1.20;;;;;;;11.82;55.53;100211.25;5103322;28;20036;-68
2021/10/17 07:28:17;;;;;;;8.32;1.30;;;;;;;11.62;55.82;100207.25;5119009;28;20027;-68
2021/10/17 07:30:42;;;;;;;4.20;1.00;;;;;;;11.46;56.36;100213.56;5103733;28;20035;-68
2021/10/17 07:33:08;;;;;;;1.95;1.60;;;;;;;11.42;56.73;100217.97;5103375;28;20040;-69
2021/10/17 07:35:33;;;;;;;4.93;1.00;;;;;;;11.34;57.54;100207.66;5103523;28;20023;-69
2021/10/17 07:38:00;;;;;;;3.42;1.20;;;;;;;11.72;57.50;100218.38;5085161;28;20084;-68
2021/10/17 07:40:25;;;;;;;2.85;0.95;;;;;;;12.23;57.11;100215.81;5103179;28;20106;-69
2021/10/17 07:42:51;;;;;;;3.42;0.77;;;;;;;12.47;56.17;100209.28;5103544;28;20020;-69
2021/10/17 07:45:16;;;;;;;2.65;1.10;;;;;;;12.71;55.87;100227.91;5103278;28;20032;-68
2021/10/17 07:47:42;;;;;;;3.92;1.10;;;;;;;12.75;56.01;100221.75;5103186;28;20399;-68
2021/10/17 07:50:09;;;;;;;3.55;1.20;;;;;;;12.80;55.10;100231.19;5103223;28;20063;-68
2021/10/17 07:52:36;;;;;;;7.60;1.80;;;;;;;12.81;55.65;100228.56;5103197;28;20468;-68
2021/10/17 07:55:05;;;;;;;3.40;1.35;;;;;;;13.81;54.79;100235.94;5102922;28;20035;-68
2021/10/17 07:57:53;;;;;;;6.28;1.42;;;;;;;14.45;52.87;100236.94;5118894;28;20059;-68
2021/10/17 08:00:20;;;;;;;6.15;1.25;;;;;;;14.30;52.12;100227.75;5103200;28;20024;-68
2021/10/17 08:02:46;;;;;;;3.25;0.95;;;;;;;13.99;51.70;100242.47;5103151;28;20016;-68
2021/10/17 08:05:11;;;;;;;3.22;1.00;;;;;;;13.69;52.20;100247.56;5102978;28;20077;-68
2021/10/17 08:07:37;;;;;;;6.35;1.85;;;;;;;13.37;52.48;100247.38;5102877;28;20027;-68
2021/10/17 08:10:02;;;;;;;4.70;1.13;;;;;;;13.01;52.65;100253.34;5102899;28;20024;-68
2021/10/17 08:12:28;;;;;;;5.70;1.20;;;;;;;12.72;53.09;100257.41;5102929;28;20089;-68
2021/10/17 08:14:53;;;;;;;3.95;0.95;;;;;;;12.40;53.69;100254.53;5104280;28;20504;-67
2021/10/17 08:17:18;;;;;;;4.15;1.00;;;;;;;12.13;54.03;100256.75;5107002;28;20039;-68
2021/10/17 08:19:44;;;;;;;4.03;1.08;;;;;;;12.64;54.84;100260.16;5107042;28;20023;-68
2021/10/17 08:22:09;;;;;;;6.97;1.60;;;;;;;13.93;53.36;100261.72;5122462;28;20036;-68
2021/10/17 08:24:34;;;;;;;5.40;1.58;;;;;;;15.26;50.95;100268.63;5107057;28;20111;-67
2021/10/17 08:27:00;;;;;;;4.35;0.93;;;;;;;16.32;49.01;100257.44;5106670;28;20020;-68
2021/10/17 08:29:25;;;;;;;2.50;1.17;;;;;;;17.26;46.95;100259.28;5106948;28;20092;-68
2021/10/17 08:31:50;;;;;;;3.38;0.70;;;;;;;18.04;45.79;100255.31;5106910;28;20031;-68
2021/10/17 08:34:16;;;;;;;2.70;0.70;;;;;;;18.76;44.10;100249.63;5107078;28;20027;-68
2021/10/17 08:36:41;;;;;;;1.20;0.57;;;;;;;19.19;41.27;100255.56;5106625;28;20027;-69
2021/10/17 08:39:07;;;;;;;2.47;0.70;;;;;;;19.14;38.41;100264.59;5106786;28;20023;-68
2021/10/17 08:41:32;;;;;;;1.90;0.85;;;;;;;18.73;38.30;100266.41;5106413;28;20024;-69
2021/10/17 08:43:58;;;;;;;3.33;1.10;;;;;;;18.24;37.81;100267.66;5106905;28;20371;-69
2021/10/17 08:46:23;;;;;;;3.70;0.75;;;;;;;17.91;38.40;100282.09;5106614;28;20035;-69
2021/10/17 08:48:57;;;;;;;2.80;0.93;;;;;;;17.78;38.74;100280.91;5106726;28;20012;-69
2021/10/17 08:51:25;;;;;;;4.50;0.70;;;;;;;18.25;39.61;100279.88;5106373;28;20035;-69
2021/10/17 08:53:51;;;;;;;2.70;0.88;;;;;;;18.96;38.48;100280.28;5106517;28;20468;-69
2021/10/17 08:56:17;;;;;;;3.85;1.10;;;;;;;19.71;38.03;100287.38;5106089;28;20031;-68
2021/10/17 08:58:42;;;;;;;1.45;0.68;;;;;;;20.17;35.35;100284.25;5106770;28;20035;-69
2021/10/17 09:01:18;;;;;;;1.60;0.60;;;;;;;19.79;34.15;100277.28;5106534;28;20454;-69
2021/10/17 09:03:53;;;;;;;1.98;0.60;;;;;;;19.14;33.62;100283.88;5106599;28;20022;-68
2021/10/17 09:06:22;;;;;;;3.42;0.70;;;;;;;18.92;33.83;100286.59;5106065;28;20040;-69
2021/10/17 09:09:03;;;;;;;1.55;0.65;;;;;;;18.89;33.58;100278.84;5106674;28;20073;-68
2021/10/17 09:11:58;;;;;;;1.93;0.70;;;;;;;18.60;32.39;100283.63;5105993;28;20535;-69
2021/10/17 09:14:25;;;;;;;2.90;0.70;;;;;;;18.16;32.44;100270.59;5104990;28;20051;-67
2021/10/17 09:16:52;;;;;;;1.77;0.70;;;;;;;18.11;32.22;100300.56;5106527;28;20034;-68
2021/10/17 09:19:23;;;;;;;4.30;1.00;;;;;;;18.12;32.98;100303.16;5106176;28;20028;-66
2021/10/17 09:22:04;;;;;;;1.48;0.60;;;;;;;18.36;33.12;100305.69;5105693;28;20039;-68
2021/10/17 09:24:33;;;;;;;1.52;0.60;;;;;;;18.89;32.68;100302.53;5106084;28;20050;-68
2021/10/17 09:27:23;;;;;;;2.75;0.80;;;;;;;19.02;31.63;100300.19;5104684;28;20012;-68
2021/10/17 09:29:52;;;;;;;3.63;0.80;;;;;;;18.93;30.64;100304.13;5106066;28;20055;-68
2021/10/17 09:32:25;;;;;;;1.23;0.50;;;;;;;18.64;30.96;100307.09;5105549;28;20024;-68
2021/10/17 09:35:03;;;;;;;4.45;0.90;;;;;;;18.32;31.29;100302.31;5105799;28;20028;-68
2021/10/17 09:37:40;;;;;;;1.80;0.68;;;;;;;18.36;31.80;100299.56;5105555;28;20026;-68
2021/10/17 09:40:21;;;;;;;1.92;0.77;;;;;;;19.08;31.78;100308.66;5105672;28;20054;-68
2021/10/17 09:43:03;;;;;;;1.40;0.65;;;;;;;18.90;31.66;100312.13;5105614;28;20107;-67
2021/10/17 09:45:29;;;;;;;3.63;0.70;;;;;;;18.95;32.22;100320.66;5087405;28;20035;-67
2021/10/17 09:47:54;;;;;;;3.35;0.80;;;;;;;19.60;31.53;100316.00;5105445;28;20024;-67
2021/10/17 09:50:21;;;;;;;5.25;0.98;;;;;;;20.34;30.60;100315.94;5105342;28;20046;-74
2021/10/17 09:53:07;;;;;;;2.97;0.70;;;;;;;21.36;29.09;100324.72;5105387;28;20038;-73
2021/10/17 09:55:34;;;;;;;1.85;0.77;;;;;;;21.97;28.18;100324.84;5087092;28;20097;-74
2021/10/17 09:58:03;;;;;;;1.85;0.70;;;;;;;22.47;27.65;100319.31;5105319;28;20025;-74
2021/10/17 10:00:30;;;;;;;4.03;0.75;;;;;;;23.21;26.91;100310.41;5105438;28;20467;-75
2021/10/17 10:02:56;;;;;;;1.17;0.50;;;;;;;24.25;25.63;100321.41;5105682;28;20104;-74
2021/10/17 10:05:33;;;;;;;1.88;0.73;;;;;;;24.82;24.40;100317.59;5105521;28;20027;-73
2021/10/17 10:08:10;;;;;;;3.20;0.70;;;;;;;25.33;23.57;100326.44;5105265;28;20032;-76
2021/10/17 10:10:39;;;;;;;2.95;0.70;;;;;;;25.24;22.52;100318.19;5105379;28;20027;-75
2021/10/17 10:13:15;;;;;;;0.88;0.43;;;;;;;24.51;22.53;100326.75;5105420;28;20028;-74
2021/10/17 10:15:43;;;;;;;1.30;0.60;;;;;;;23.87;23.20;100330.09;5105206;28;20016;-72
2021/10/17 10:18:11;;;;;;;1.20;0.50;;;;;;;23.02;23.05;100332.75;5105109;28;20016;-72
2021/10/17 10:20:37;;;;;;;1.98;0.60;;;;;;;22.14;23.17;100325.66;5105159;28;20020;-69
2021/10/17 10:23:03;;;;;;;0.75;0.55;;;;;;;21.44;23.98;100333.03;5104505;28;20119;-66
2021/10/17 10:25:29;;;;;;;0.98;0.50;;;;;;;20.84;24.71;100330.06;5104640;28;20451;-67
2021/10/17 10:27:55;;;;;;;1.23;0.60;;;;;;;20.70;24.90;100335.22;5104796;28;20027;-66
2021/10/17 10:30:41;;;;;;;2.40;0.70;;;;;;;20.62;25.08;100327.69;5104806;28;20020;-65
2021/10/17 10:33:06;;;;;;;1.30;0.50;;;;;;;20.72;24.93;100323.63;5104382;28;20123;-69
2021/10/17 10:35:32;;;;;;;0.53;0.40;;;;;;;20.73;24.89;100327.13;5104733;28;20177;-66
2021/10/17 10:37:57;;;;;;;1.17;0.60;;;;;;;20.71;24.25;100324.56;5104796;28;20252;-68
2021/10/17 10:40:23;;;;;;;1.75;0.55;;;;;;;20.24;24.62;100329.56;5104473;28;20032;-71
2021/10/17 10:42:50;;;;;;;1.50;0.70;;;;;;;19.61;25.13;100342.25;5104541;28;20031;-70
2021/10/17 10:45:24;;;;;;;1.38;0.88;;;;;;;18.75;26.18;100342.59;5104157;28;20111;-71
2021/10/17 10:48:05;;;;;;;1.17;0.57;;;;;;;17.87;27.60;100340.91;5104405;28;20107;-70
2021/10/17 10:50:35;;;;;;;1.80;0.50;;;;;;;17.28;28.42;100338.81;5104623;28;20031;-70
2021/10/17 10:53:00;;;;;;;2.50;0.70;;;;;;;16.68;29.18;100340.03;5104631;28;20016;-70
2021/10/17 10:55:46;;;;;;;1.42;0.70;;;;;;;16.15;29.78;100346.19;5104271;28;20057;-71
2021/10/17 10:58:26;;;;;;;0.70;0.50;;;;;;;15.63;30.33;100346.88;5104091;28;20091;-70
2021/10/17 11:00:54;;;;;;;2.60;0.85;;;;;;;15.32;31.03;100346.91;5104495;28;20020;-70
2021/10/17 11:03:21;;;;;;;1.88;0.88;;;;;;;15.42;31.78;100357.09;5104418;28;20048;-69
2021/10/17 11:06:05;;;;;;;1.48;0.77;;;;;;;15.95;31.39;100352.88;5104433;28;20046;-70
2021/10/17 11:08:32;;;;;;;1.48;0.75;;;;;;;17.31;30.67;100346.56;5104499;28;20012;-71
2021/10/17 11:10:58;;;;;;;1.90;0.60;;;;;;;17.96;29.48;100347.56;5104056;28;20092;-70
2021/10/17 11:13:35;;;;;;;4.18;0.85;;;;;;;17.76;29.43;100357.09;5104161;28;20118;-71
2021/10/17 11:16:03;;;;;;;0.50;0.50;;;;;;;17.00;29.86;100346.81;5104372;28;20388;-72
2021/10/17 11:18:30;;;;;;;1.38;0.63;;;;;;;16.43;30.98;100366.22;5104200;28;20069;-72
2021/10/17 11:20:56;;;;;;;2.55;0.70;;;;;;;15.96;31.81;100372.91;5085723;28;20483;-71
2021/10/17 11:23:24;;;;;;;3.00;0.77;;;;;;;15.45;32.29;100354.38;5103861;28;20143;-72
2021/10/17 11:25:58;;;;;;;1.25;0.65;;;;;;;14.98;32.43;100350.50;5104032;28;20016;-72
2021/10/17 11:28:26;;;;;;;1.73;0.70;;;;;;;14.54;33.22;100366.41;5104024;28;20020;-72